sensor_id;sensor_type;location;lat;lon;timestamp;pressure;altitude;pressure_sealevel;temperature;humidity
5954;BME280;3002;42.642;24.812;2023-05-02T00:02:13;96966.00;;;13.74;100.00
5954;BME280;3002;42.642;24.812;2023-05-02T00:04:38;96954.53;;;13.82;100.00
5954;BME280;3002;42.642;24.812;2023-05-02T00:07:04;96987.19;;;13.80;100.00
5954;BME280;3002;42.642;24.812;2023-05-02T00:09:30;96971.63;;;13.91;100.00
5954;BME280;3002;42.642;24.812;2023-05-02T00:11:55;96980.66;;;14.14;100.00
5954;BME280;3002;42.642;24.812;2023-05-02T00:14:21;96979.50;;;13.74;100.00
5954;BME280;3002;42.642;24.812;2023-05-02T00:16:46;96976.53;;;13.56;100.00
5954;BME280;3002;42.642;24.812;2023-05-02T00:19:12;96993.25;;;14.05;100.00
5954;BME280;3002;42.642;24.812;2023-05-02T00:21:37;96993.00;;;13.87;100.00
5954;BME280;3002;42.642;24.812;2023-05-02T00:24:03;96987.38;;;13.84;100.00
5954;BME280;3002;42.642;24.812;2023-05-02T00:26:29;96994.13;;;14.00;100.00
5954;BME280;3002;42.642;24.812;2023-05-02T00:28:55;96991.06;;;13.74;100.00
5954;BME280;3002;42.642;24.812;2023-05-02T00:31:20;96985.13;;;13.39;100.00
5954;BME280;3002;42.642;24.812;2023-05-02T00:33:46;96979.75;;;13.39;100.00
5954;BME280;3002;42.642;24.812;2023-05-02T00:36:18;96988.25;;;13.79;100.00
5954;BME280;3002;42.642;24.812;2023-05-02T00:38:44;96999.25;;;13.50;100.00
5954;BME280;3002;42.642;24.812;2023-05-02T00:41:10;97006.78;;;13.67;100.00
5954;BME280;3002;42.642;24.812;2023-05-02T00:43:36;96997.13;;;13.47;100.00
5954;BME280;3002;42.642;24.812;2023-05-02T00:46:04;97012.06;;;13.58;100.00
5954;BME280;3002;42.642;24.812;2023-05-02T00:48:29;96982.19;;;13.74;100.00
5954;BME280;3002;42.642;24.812;2023-05-02T00:50:55;96963.78;;;13.43;100.00
5954;BME280;3002;42.642;24.812;2023-05-02T00:53:21;96997.81;;;13.72;100.00
5954;BME280;3002;42.642;24.812;2023-05-02T00:56:21;96998.88;;;13.57;100.00
5954;BME280;3002;42.642;24.812;2023-05-02T00:58:47;96990.09;;;13.84;100.00
5954;BME280;3002;42.642;24.812;2023-05-02T01:09:51;96991.91;;;13.88;100.00
5954;BME280;3002;42.642;24.812;2023-05-02T01:12:27;96987.63;;;14.01;100.00
5954;BME280;3002;42.642;24.812;2023-05-02T01:14:56;96982.22;;;13.87;100.00
5954;BME280;3002;42.642;24.812;2023-05-02T01:17:28;96975.22;;;13.86;100.00
5954;BME280;3002;42.642;24.812;2023-05-02T01:19:58;96981.06;;;14.07;100.00
5954;BME280;3002;42.642;24.812;2023-05-02T01:22:28;96974.53;;;13.95;99.83
5954;BME280;3002;42.642;24.812;2023-05-02T01:31:41;96985.25;;;14.00;100.00
5954;BME280;3002;42.642;24.812;2023-05-02T01:34:09;96991.13;;;14.02;99.13
5954;BME280;3002;42.642;24.812;2023-05-02T01:36:37;96995.16;;;13.53;100.00
5954;BME280;3002;42.642;24.812;2023-05-02T01:39:08;96983.69;;;13.80;100.00
5954;BME280;3002;42.642;24.812;2023-05-02T01:41:35;97000.19;;;13.41;100.00
5954;BME280;3002;42.642;24.812;2023-05-02T01:44:02;96992.16;;;13.54;100.00
5954;BME280;3002;42.642;24.812;2023-05-02T01:46:33;97000.53;;;13.72;100.00
5954;BME280;3002;42.642;24.812;2023-05-02T01:49:05;97001.78;;;13.60;100.00
5954;BME280;3002;42.642;24.812;2023-05-02T01:51:33;96997.19;;;13.61;100.00
5954;BME280;3002;42.642;24.812;2023-05-02T01:54:03;96997.03;;;13.71;100.00
5954;BME280;3002;42.642;24.812;2023-05-02T01:56:34;97006.34;;;13.79;100.00
5954;BME280;3002;42.642;24.812;2023-05-02T01:59:04;96984.34;;;13.72;100.00
5954;BME280;3002;42.642;24.812;2023-05-02T02:01:31;97006.66;;;13.58;100.00
5954;BME280;3002;42.642;24.812;2023-05-02T02:03:59;96978.13;;;13.38;100.00
5954;BME280;3002;42.642;24.812;2023-05-02T02:06:25;96979.44;;;13.22;100.00
5954;BME280;3002;42.642;24.812;2023-05-02T02:08:52;96986.22;;;13.38;100.00
5954;BME280;3002;42.642;24.812;2023-05-02T02:11:24;96997.69;;;13.25;100.00
5954;BME280;3002;42.642;24.812;2023-05-02T02:13:56;96989.59;;;13.06;100.00
5954;BME280;3002;42.642;24.812;2023-05-02T02:16:29;96998.16;;;13.32;100.00
5954;BME280;3002;42.642;24.812;2023-05-02T02:18:55;96997.88;;;13.34;100.00
5954;BME280;3002;42.642;24.812;2023-05-02T02:21:22;96966.72;;;13.28;100.00
5954;BME280;3002;42.642;24.812;2023-05-02T02:23:50;96991.59;;;13.20;100.00
5954;BME280;3002;42.642;24.812;2023-05-02T02:26:19;96975.09;;;13.26;100.00
5954;BME280;3002;42.642;24.812;2023-05-02T02:28:45;97003.56;;;12.90;100.00
5954;BME280;3002;42.642;24.812;2023-05-02T02:31:11;96973.69;;;12.67;100.00
5954;BME280;3002;42.642;24.812;2023-05-02T02:33:37;96981.38;;;13.17;100.00
5954;BME280;3002;42.642;24.812;2023-05-02T02:36:18;96989.59;;;12.40;100.00
5954;BME280;3002;42.642;24.812;2023-05-02T02:39:17;96990.16;;;12.84;100.00
5954;BME280;3002;42.642;24.812;2023-05-02T02:41:50;96999.09;;;13.23;100.00
5954;BME280;3002;42.642;24.812;2023-05-02T02:44:40;97008.59;;;13.15;100.00
5954;BME280;3002;42.642;24.812;2023-05-02T02:47:11;97001.06;;;13.36;100.00
5954;BME280;3002;42.642;24.812;2023-05-02T02:49:49;97020.81;;;13.50;100.00
5954;BME280;3002;42.642;24.812;2023-05-02T02:55:12;97022.97;;;13.29;100.00
5954;BME280;3002;42.642;24.812;2023-05-02T02:57:57;97028.53;;;13.14;100.00
5954;BME280;3002;42.642;24.812;2023-05-02T03:00:24;97012.09;;;13.16;100.00
5954;BME280;3002;42.642;24.812;2023-05-02T03:02:51;97021.53;;;13.13;100.00
5954;BME280;3002;42.642;24.812;2023-05-02T03:05:18;96992.50;;;12.67;100.00
5954;BME280;3002;42.642;24.812;2023-05-02T03:07:45;96991.50;;;12.82;100.00
5954;BME280;3002;42.642;24.812;2023-05-02T03:10:14;97003.03;;;12.88;100.00
5954;BME280;3002;42.642;24.812;2023-05-02T03:12:40;96994.16;;;12.87;100.00
5954;BME280;3002;42.642;24.812;2023-05-02T03:17:59;97001.53;;;12.28;100.00
5954;BME280;3002;42.642;24.812;2023-05-02T03:20:24;97014.09;;;12.86;100.00
5954;BME280;3002;42.642;24.812;2023-05-02T03:22:50;97005.56;;;12.55;100.00
5954;BME280;3002;42.642;24.812;2023-05-02T03:25:16;97004.22;;;12.52;100.00
5954;BME280;3002;42.642;24.812;2023-05-02T03:27:41;97003.22;;;12.48;100.00
5954;BME280;3002;42.642;24.812;2023-05-02T03:30:07;97016.19;;;12.89;100.00
5954;BME280;3002;42.642;24.812;2023-05-02T03:32:33;97022.28;;;12.76;100.00
5954;BME280;3002;42.642;24.812;2023-05-02T03:34:58;97010.16;;;12.54;100.00
5954;BME280;3002;42.642;24.812;2023-05-02T03:37:24;97019.88;;;12.74;100.00
5954;BME280;3002;42.642;24.812;2023-05-02T03:39:50;97006.31;;;12.84;100.00
5954;BME280;3002;42.642;24.812;2023-05-02T03:42:15;97009.16;;;12.69;100.00
5954;BME280;3002;42.642;24.812;2023-05-02T03:44:41;97010.72;;;12.75;100.00
5954;BME280;3002;42.642;24.812;2023-05-02T03:47:06;97015.03;;;12.47;100.00
5954;BME280;3002;42.642;24.812;2023-05-02T03:49:34;97041.66;;;12.78;100.00
5954;BME280;3002;42.642;24.812;2023-05-02T03:52:01;97053.75;;;12.99;100.00
5954;BME280;3002;42.642;24.812;2023-05-02T03:54:26;97042.59;;;12.87;99.92
5954;BME280;3002;42.642;24.812;2023-05-02T03:56:55;97040.91;;;12.72;100.00
5954;BME280;3002;42.642;24.812;2023-05-02T03:59:20;97061.94;;;12.89;100.00
5954;BME280;3002;42.642;24.812;2023-05-02T04:01:49;97057.69;;;13.07;100.00
5954;BME280;3002;42.642;24.812;2023-05-02T04:04:15;97037.22;;;12.63;100.00
5954;BME280;3002;42.642;24.812;2023-05-02T04:06:40;97041.97;;;12.71;100.00
5954;BME280;3002;42.642;24.812;2023-05-02T04:09:06;97036.31;;;12.73;100.00
5954;BME280;3002;42.642;24.812;2023-05-02T04:11:33;97046.16;;;12.82;100.00
5954;BME280;3002;42.642;24.812;2023-05-02T04:13:58;97060.28;;;12.93;99.30
5954;BME280;3002;42.642;24.812;2023-05-02T04:16:24;97048.88;;;13.01;98.47
5954;BME280;3002;42.642;24.812;2023-05-02T04:18:50;97058.97;;;13.15;97.45
5954;BME280;3002;42.642;24.812;2023-05-02T04:21:15;97053.66;;;14.36;87.51
5954;BME280;3002;42.642;24.812;2023-05-02T04:23:41;97062.94;;;14.90;82.13
5954;BME280;3002;42.642;24.812;2023-05-02T04:26:06;97059.44;;;15.04;80.92
5954;BME280;3002;42.642;24.812;2023-05-02T04:28:34;97040.75;;;14.66;85.02
5954;BME280;3002;42.642;24.812;2023-05-02T04:30:59;97039.72;;;14.62;84.46
5954;BME280;3002;42.642;24.812;2023-05-02T04:33:25;97059.25;;;14.86;84.34
5954;BME280;3002;42.642;24.812;2023-05-02T04:35:50;97018.84;;;14.95;81.54
5954;BME280;3002;42.642;24.812;2023-05-02T04:38:17;97051.84;;;15.69;77.04
5954;BME280;3002;42.642;24.812;2023-05-02T04:40:42;97050.97;;;15.60;76.33
5954;BME280;3002;42.642;24.812;2023-05-02T04:43:08;97058.81;;;16.29;72.62
5954;BME280;3002;42.642;24.812;2023-05-02T04:45:34;97064.59;;;15.91;74.42
5954;BME280;3002;42.642;24.812;2023-05-02T04:48:01;97061.19;;;15.49;76.96
5954;BME280;3002;42.642;24.812;2023-05-02T04:50:26;97074.38;;;14.87;83.02
5954;BME280;3002;42.642;24.812;2023-05-02T04:52:53;97046.75;;;14.90;82.34
5954;BME280;3002;42.642;24.812;2023-05-02T04:55:19;97082.66;;;16.72;73.05
5954;BME280;3002;42.642;24.812;2023-05-02T04:57:44;97077.66;;;16.96;69.03
5954;BME280;3002;42.642;24.812;2023-05-02T05:00:10;97082.13;;;17.58;66.40
5954;BME280;3002;42.642;24.812;2023-05-02T05:02:36;97076.38;;;17.68;66.96
5954;BME280;3002;42.642;24.812;2023-05-02T05:05:03;97074.19;;;18.22;63.96
5954;BME280;3002;42.642;24.812;2023-05-02T05:07:29;97068.25;;;17.68;62.92
5954;BME280;3002;42.642;24.812;2023-05-02T05:09:55;97066.66;;;18.28;62.55
5954;BME280;3002;42.642;24.812;2023-05-02T05:12:20;97077.44;;;19.18;59.28
5954;BME280;3002;42.642;24.812;2023-05-02T05:14:46;97085.41;;;19.61;58.56
5954;BME280;3002;42.642;24.812;2023-05-02T05:17:11;97076.41;;;20.23;55.59
5954;BME280;3002;42.642;24.812;2023-05-02T05:19:37;97085.09;;;20.58;55.31
5954;BME280;3002;42.642;24.812;2023-05-02T05:22:02;97084.94;;;21.13;54.60
5954;BME280;3002;42.642;24.812;2023-05-02T05:24:28;97079.16;;;21.51;52.15
5954;BME280;3002;42.642;24.812;2023-05-02T05:26:53;97078.09;;;20.94;53.33
5954;BME280;3002;42.642;24.812;2023-05-02T05:29:19;97068.97;;;20.66;53.21
5954;BME280;3002;42.642;24.812;2023-05-02T05:31:44;97074.25;;;21.56;50.50
5954;BME280;3002;42.642;24.812;2023-05-02T05:34:10;97091.59;;;19.91;54.52
5954;BME280;3002;42.642;24.812;2023-05-02T05:36:35;97067.69;;;19.17;55.81
5954;BME280;3002;42.642;24.812;2023-05-02T05:39:02;97087.75;;;20.25;53.47
5954;BME280;3002;42.642;24.812;2023-05-02T05:41:28;97092.19;;;21.08;52.75
5954;BME280;3002;42.642;24.812;2023-05-02T05:43:54;97100.81;;;20.86;52.54
5954;BME280;3002;42.642;24.812;2023-05-02T05:46:20;97093.44;;;19.99;55.78
5954;BME280;3002;42.642;24.812;2023-05-02T05:48:46;97099.75;;;21.36;52.62
5954;BME280;3002;42.642;24.812;2023-05-02T05:51:11;97104.72;;;22.23;50.20
5954;BME280;3002;42.642;24.812;2023-05-02T05:53:37;97080.28;;;20.55;54.57
5954;BME280;3002;42.642;24.812;2023-05-02T05:56:12;97110.75;;;22.57;50.52
5954;BME280;3002;42.642;24.812;2023-05-02T05:58:38;97090.50;;;21.65;51.62
5954;BME280;3002;42.642;24.812;2023-05-02T06:01:04;97096.97;;;21.85;51.85
5954;BME280;3002;42.642;24.812;2023-05-02T06:03:30;97103.16;;;23.26;48.58
5954;BME280;3002;42.642;24.812;2023-05-02T06:05:56;97102.66;;;21.80;50.54
5954;BME280;3002;42.642;24.812;2023-05-02T06:08:21;97103.25;;;21.61;51.24
5954;BME280;3002;42.642;24.812;2023-05-02T06:10:47;97096.50;;;21.83;48.10
5954;BME280;3002;42.642;24.812;2023-05-02T06:13:12;97110.19;;;22.23;46.53
5954;BME280;3002;42.642;24.812;2023-05-02T06:15:38;97099.84;;;21.52;47.65
5954;BME280;3002;42.642;24.812;2023-05-02T06:18:03;97095.94;;;20.92;50.01
5954;BME280;3002;42.642;24.812;2023-05-02T06:20:29;97127.59;;;23.03;45.49
5954;BME280;3002;42.642;24.812;2023-05-02T06:22:54;97103.66;;;23.63;44.06
5954;BME280;3002;42.642;24.812;2023-05-02T06:25:20;97114.78;;;23.54;42.64
5954;BME280;3002;42.642;24.812;2023-05-02T06:27:45;97138.22;;;24.22;42.33
5954;BME280;3002;42.642;24.812;2023-05-02T06:30:11;97113.06;;;24.16;41.09
5954;BME280;3002;42.642;24.812;2023-05-02T06:32:37;97118.94;;;22.57;43.96
5954;BME280;3002;42.642;24.812;2023-05-02T06:35:02;97115.75;;;22.55;45.74
5954;BME280;3002;42.642;24.812;2023-05-02T06:37:32;97125.66;;;21.79;47.91
5954;BME280;3002;42.642;24.812;2023-05-02T06:39:58;97116.00;;;22.22;47.68
5954;BME280;3002;42.642;24.812;2023-05-02T06:42:24;97116.94;;;22.69;46.04
5954;BME280;3002;42.642;24.812;2023-05-02T06:44:50;97116.66;;;23.66;43.32
5954;BME280;3002;42.642;24.812;2023-05-02T06:47:15;97126.91;;;24.04;41.32
5954;BME280;3002;42.642;24.812;2023-05-02T06:49:41;97088.59;;;23.37;42.38
5954;BME280;3002;42.642;24.812;2023-05-02T06:52:06;97112.28;;;23.81;41.78
5954;BME280;3002;42.642;24.812;2023-05-02T06:54:32;97098.97;;;23.98;41.13
5954;BME280;3002;42.642;24.812;2023-05-02T06:56:58;97104.44;;;22.40;42.51
5954;BME280;3002;42.642;24.812;2023-05-02T06:59:24;97128.94;;;23.72;40.51
5954;BME280;3002;42.642;24.812;2023-05-02T07:01:49;97120.28;;;24.24;39.78
5954;BME280;3002;42.642;24.812;2023-05-02T07:04:15;97114.41;;;25.49;37.14
5954;BME280;3002;42.642;24.812;2023-05-02T07:06:40;97092.94;;;24.67;37.89
5954;BME280;3002;42.642;24.812;2023-05-02T07:09:06;97093.56;;;23.83;39.50
5954;BME280;3002;42.642;24.812;2023-05-02T07:11:32;97102.09;;;23.97;38.79
5954;BME280;3002;42.642;24.812;2023-05-02T07:13:58;97103.22;;;26.48;35.29
5954;BME280;3002;42.642;24.812;2023-05-02T07:16:23;97089.91;;;25.41;37.40
5954;BME280;3002;42.642;24.812;2023-05-02T07:18:49;97124.59;;;26.02;35.12
5954;BME280;3002;42.642;24.812;2023-05-02T07:21:14;97115.56;;;22.48;39.25
5954;BME280;3002;42.642;24.812;2023-05-02T07:23:40;97109.41;;;23.26;36.86
5954;BME280;3002;42.642;24.812;2023-05-02T07:26:05;97094.16;;;25.12;35.97
5954;BME280;3002;42.642;24.812;2023-05-02T07:28:31;97124.09;;;25.93;34.41
5954;BME280;3002;42.642;24.812;2023-05-02T07:30:56;97129.41;;;24.67;36.61
5954;BME280;3002;42.642;24.812;2023-05-02T07:33:22;97129.22;;;25.22;35.61
5954;BME280;3002;42.642;24.812;2023-05-02T07:35:49;97117.19;;;24.84;35.51
5954;BME280;3002;42.642;24.812;2023-05-02T07:38:14;97133.31;;;25.08;34.64
5954;BME280;3002;42.642;24.812;2023-05-02T07:40:40;97116.63;;;24.98;34.07
5954;BME280;3002;42.642;24.812;2023-05-02T07:43:05;97123.22;;;25.62;34.31
5954;BME280;3002;42.642;24.812;2023-05-02T07:45:31;97121.09;;;26.35;33.68
5954;BME280;3002;42.642;24.812;2023-05-02T07:47:57;97115.03;;;27.74;31.38
5954;BME280;3002;42.642;24.812;2023-05-02T07:50:22;97109.81;;;25.83;34.19
5954;BME280;3002;42.642;24.812;2023-05-02T07:52:48;97118.03;;;26.74;31.65
5954;BME280;3002;42.642;24.812;2023-05-02T07:55:13;97108.63;;;26.41;31.25
5954;BME280;3002;42.642;24.812;2023-05-02T07:57:39;97105.09;;;26.10;31.42
5954;BME280;3002;42.642;24.812;2023-05-02T08:00:05;97118.75;;;23.57;33.42
5954;BME280;3002;42.642;24.812;2023-05-02T08:02:34;97109.56;;;26.89;31.09
5954;BME280;3002;42.642;24.812;2023-05-02T08:05:01;97101.31;;;26.56;30.54
5954;BME280;3002;42.642;24.812;2023-05-02T08:07:27;97105.59;;;27.76;28.20
5954;BME280;3002;42.642;24.812;2023-05-02T08:09:52;97105.53;;;27.20;27.72
5954;BME280;3002;42.642;24.812;2023-05-02T08:12:18;97118.03;;;25.07;27.75
5954;BME280;3002;42.642;24.812;2023-05-02T08:14:43;97113.09;;;22.86;31.50
5954;BME280;3002;42.642;24.812;2023-05-02T08:17:09;97096.28;;;22.28;30.67
5954;BME280;3002;42.642;24.812;2023-05-02T08:19:34;97090.78;;;23.47;30.31
5954;BME280;3002;42.642;24.812;2023-05-02T08:22:00;97090.03;;;23.15;31.19
5954;BME280;3002;42.642;24.812;2023-05-02T08:24:25;97104.72;;;25.09;28.68
5954;BME280;3002;42.642;24.812;2023-05-02T08:26:51;97062.31;;;25.56;27.57
5954;BME280;3002;42.642;24.812;2023-05-02T08:29:16;97091.47;;;26.51;27.07
5954;BME280;3002;42.642;24.812;2023-05-02T08:31:42;97063.09;;;25.57;26.48
5954;BME280;3002;42.642;24.812;2023-05-02T08:34:07;97066.34;;;26.53;25.62
5954;BME280;3002;42.642;24.812;2023-05-02T08:36:33;97079.81;;;27.50;25.92
5954;BME280;3002;42.642;24.812;2023-05-02T08:38:58;97069.69;;;26.39;25.63
5954;BME280;3002;42.642;24.812;2023-05-02T08:41:24;97088.16;;;24.83;27.69
5954;BME280;3002;42.642;24.812;2023-05-02T08:43:51;97080.38;;;25.08;28.60
5954;BME280;3002;42.642;24.812;2023-05-02T08:46:17;97091.38;;;24.89;27.55
5954;BME280;3002;42.642;24.812;2023-05-02T08:48:44;97076.38;;;24.40;27.86
5954;BME280;3002;42.642;24.812;2023-05-02T08:51:16;97085.13;;;25.87;26.81
5954;BME280;3002;42.642;24.812;2023-05-02T08:53:42;97091.41;;;25.61;27.62
5954;BME280;3002;42.642;24.812;2023-05-02T08:56:09;97074.19;;;26.91;27.24
5954;BME280;3002;42.642;24.812;2023-05-02T08:58:36;97087.88;;;28.60;25.39
5954;BME280;3002;42.642;24.812;2023-05-02T09:01:17;97050.69;;;27.05;27.06
5954;BME280;3002;42.642;24.812;2023-05-02T09:03:45;97085.63;;;27.38;26.80
5954;BME280;3002;42.642;24.812;2023-05-02T09:06:12;97078.25;;;24.55;28.75
5954;BME280;3002;42.642;24.812;2023-05-02T09:08:39;97055.84;;;24.96;28.76
5954;BME280;3002;42.642;24.812;2023-05-02T09:11:06;97075.66;;;27.74;27.26
5954;BME280;3002;42.642;24.812;2023-05-02T09:13:35;97074.56;;;25.89;26.51
5954;BME280;3002;42.642;24.812;2023-05-02T09:16:06;97068.38;;;26.59;27.12
5954;BME280;3002;42.642;24.812;2023-05-02T09:18:42;97058.00;;;27.86;25.71
5954;BME280;3002;42.642;24.812;2023-05-02T09:21:13;97058.44;;;27.33;25.85
5954;BME280;3002;42.642;24.812;2023-05-02T09:23:48;97061.19;;;26.88;26.04
5954;BME280;3002;42.642;24.812;2023-05-02T09:26:15;97067.94;;;26.24;27.42
5954;BME280;3002;42.642;24.812;2023-05-02T09:31:16;97049.06;;;25.62;28.24
5954;BME280;3002;42.642;24.812;2023-05-02T09:33:42;97048.56;;;27.83;27.02
5954;BME280;3002;42.642;24.812;2023-05-02T09:36:11;97055.97;;;28.70;25.74
5954;BME280;3002;42.642;24.812;2023-05-02T09:38:38;97039.81;;;28.72;25.19
5954;BME280;3002;42.642;24.812;2023-05-02T09:41:03;97036.28;;;28.75;26.16
5954;BME280;3002;42.642;24.812;2023-05-02T09:43:30;97039.84;;;29.32;25.11
5954;BME280;3002;42.642;24.812;2023-05-02T09:45:58;97051.72;;;29.58;24.32
5954;BME280;3002;42.642;24.812;2023-05-02T09:48:25;97043.03;;;29.13;24.31
5954;BME280;3002;42.642;24.812;2023-05-02T09:50:51;97030.13;;;26.51;26.46
5954;BME280;3002;42.642;24.812;2023-05-02T09:53:17;97032.59;;;25.66;28.33
5954;BME280;3002;42.642;24.812;2023-05-02T09:55:42;96999.63;;;27.66;26.00
5954;BME280;3002;42.642;24.812;2023-05-02T09:58:19;97040.78;;;24.86;28.15
5954;BME280;3002;42.642;24.812;2023-05-02T10:00:49;97002.34;;;26.26;27.02
5954;BME280;3002;42.642;24.812;2023-05-02T10:03:16;96982.19;;;26.48;27.68
5954;BME280;3002;42.642;24.812;2023-05-02T10:05:44;97012.16;;;27.05;26.61
5954;BME280;3002;42.642;24.812;2023-05-02T10:08:11;97012.63;;;28.81;25.64
5954;BME280;3002;42.642;24.812;2023-05-02T10:10:40;97021.25;;;27.64;25.82
5954;BME280;3002;42.642;24.812;2023-05-02T10:13:09;97010.19;;;26.57;26.61
5954;BME280;3002;42.642;24.812;2023-05-02T10:15:39;96988.94;;;27.57;25.74
5954;BME280;3002;42.642;24.812;2023-05-02T10:20:57;96990.16;;;29.22;25.86
5954;BME280;3002;42.642;24.812;2023-05-02T10:23:29;96994.09;;;28.74;26.15
5954;BME280;3002;42.642;24.812;2023-05-02T10:25:56;96986.44;;;28.14;25.21
5954;BME280;3002;42.642;24.812;2023-05-02T10:28:22;97014.72;;;27.24;25.58
5954;BME280;3002;42.642;24.812;2023-05-02T10:30:48;97007.69;;;28.03;25.51
5954;BME280;3002;42.642;24.812;2023-05-02T10:33:15;96998.66;;;28.13;25.90
5954;BME280;3002;42.642;24.812;2023-05-02T10:35:43;96991.94;;;28.07;26.49
5954;BME280;3002;42.642;24.812;2023-05-02T10:38:20;96996.69;;;25.78;26.98
5954;BME280;3002;42.642;24.812;2023-05-02T10:40:53;97002.78;;;26.65;27.96
5954;BME280;3002;42.642;24.812;2023-05-02T10:43:26;96993.72;;;27.67;26.84
5954;BME280;3002;42.642;24.812;2023-05-02T10:45:52;96997.97;;;26.18;27.37
5954;BME280;3002;42.642;24.812;2023-05-02T10:48:23;96986.25;;;26.24;26.57
5954;BME280;3002;42.642;24.812;2023-05-02T10:50:53;96999.91;;;26.95;26.50
5954;BME280;3002;42.642;24.812;2023-05-02T10:53:26;96993.81;;;27.82;25.22
5954;BME280;3002;42.642;24.812;2023-05-02T10:58:44;96983.34;;;28.26;25.00
5954;BME280;3002;42.642;24.812;2023-05-02T11:04:04;96983.28;;;30.71;24.59
5954;BME280;3002;42.642;24.812;2023-05-02T11:06:35;96988.19;;;29.15;24.80
5954;BME280;3002;42.642;24.812;2023-05-02T11:11:43;96984.63;;;27.60;26.17
5954;BME280;3002;42.642;24.812;2023-05-02T11:14:12;96987.50;;;27.78;25.23
5954;BME280;3002;42.642;24.812;2023-05-02T11:19:27;96983.38;;;27.50;26.50
5954;BME280;3002;42.642;24.812;2023-05-02T11:24:42;96994.28;;;28.02;25.73
5954;BME280;3002;42.642;24.812;2023-05-02T11:30:05;96985.94;;;27.18;26.21
5954;BME280;3002;42.642;24.812;2023-05-02T11:35:22;96976.84;;;31.30;22.13
5954;BME280;3002;42.642;24.812;2023-05-02T11:37:55;96972.00;;;28.85;24.14
5954;BME280;3002;42.642;24.812;2023-05-02T11:40:22;96971.94;;;31.79;21.93
5954;BME280;3002;42.642;24.812;2023-05-02T11:42:48;96960.06;;;32.43;21.14
5954;BME280;3002;42.642;24.812;2023-05-02T11:45:13;96958.59;;;30.28;23.16
5954;BME280;3002;42.642;24.812;2023-05-02T11:47:40;96949.56;;;30.24;23.12
5954;BME280;3002;42.642;24.812;2023-05-02T11:50:06;96952.28;;;31.66;21.85
5954;BME280;3002;42.642;24.812;2023-05-02T11:52:41;96953.34;;;31.00;22.17
5954;BME280;3002;42.642;24.812;2023-05-02T11:55:10;96960.19;;;29.06;23.76
5954;BME280;3002;42.642;24.812;2023-05-02T11:57:36;96963.31;;;28.58;24.54
5954;BME280;3002;42.642;24.812;2023-05-02T12:00:02;96959.31;;;29.45;22.81
5954;BME280;3002;42.642;24.812;2023-05-02T12:02:36;96934.69;;;29.93;22.56
5954;BME280;3002;42.642;24.812;2023-05-02T12:05:03;96946.06;;;30.06;22.89
5954;BME280;3002;42.642;24.812;2023-05-02T12:07:38;96931.75;;;28.48;23.37
5954;BME280;3002;42.642;24.812;2023-05-02T12:10:08;96933.31;;;30.30;22.99
5954;BME280;3002;42.642;24.812;2023-05-02T12:12:37;96930.44;;;30.48;22.95
5954;BME280;3002;42.642;24.812;2023-05-02T12:15:08;96923.88;;;28.33;24.32
5954;BME280;3002;42.642;24.812;2023-05-02T12:17:46;96910.88;;;28.44;25.04
5954;BME280;3002;42.642;24.812;2023-05-02T12:20:16;96919.91;;;26.74;25.97
5954;BME280;3002;42.642;24.812;2023-05-02T12:22:42;96906.81;;;29.41;22.99
5954;BME280;3002;42.642;24.812;2023-05-02T12:25:08;96897.94;;;30.55;22.38
5954;BME280;3002;42.642;24.812;2023-05-02T12:27:34;96904.56;;;28.79;24.39
5954;BME280;3002;42.642;24.812;2023-05-02T12:29:59;96913.47;;;27.72;25.80
5954;BME280;3002;42.642;24.812;2023-05-02T12:32:30;96911.06;;;26.50;27.69
5954;BME280;3002;42.642;24.812;2023-05-02T12:34:56;96893.34;;;26.95;27.33
5954;BME280;3002;42.642;24.812;2023-05-02T12:37:23;96883.28;;;28.44;24.98
5954;BME280;3002;42.642;24.812;2023-05-02T12:39:49;96883.19;;;27.90;24.83
5954;BME280;3002;42.642;24.812;2023-05-02T12:42:16;96865.09;;;29.07;23.98
5954;BME280;3002;42.642;24.812;2023-05-02T12:44:47;96879.59;;;26.95;25.11
5954;BME280;3002;42.642;24.812;2023-05-02T12:47:14;96858.31;;;27.69;25.17
5954;BME280;3002;42.642;24.812;2023-05-02T12:49:57;96856.84;;;28.86;23.67
5954;BME280;3002;42.642;24.812;2023-05-02T12:52:45;96868.50;;;26.81;25.77
5954;BME280;3002;42.642;24.812;2023-05-02T12:55:21;96861.63;;;27.12;25.89
5954;BME280;3002;42.642;24.812;2023-05-02T12:57:49;96859.94;;;27.81;24.85
5954;BME280;3002;42.642;24.812;2023-05-02T13:00:15;96851.56;;;25.20;26.58
5954;BME280;3002;42.642;24.812;2023-05-02T13:02:41;96849.28;;;25.93;26.62
5954;BME280;3002;42.642;24.812;2023-05-02T13:05:17;96841.78;;;26.34;27.19
5954;BME280;3002;42.642;24.812;2023-05-02T13:07:43;96846.03;;;26.24;27.08
5954;BME280;3002;42.642;24.812;2023-05-02T13:10:09;96834.81;;;26.03;26.56
5954;BME280;3002;42.642;24.812;2023-05-02T13:12:36;96827.09;;;25.41;27.76
5954;BME280;3002;42.642;24.812;2023-05-02T13:15:06;96825.81;;;24.71;29.99
5954;BME280;3002;42.642;24.812;2023-05-02T13:17:32;96843.44;;;25.30;28.82
5954;BME280;3002;42.642;24.812;2023-05-02T13:19:58;96835.84;;;24.60;29.66
5954;BME280;3002;42.642;24.812;2023-05-02T13:22:24;96841.88;;;25.63;28.05
5954;BME280;3002;42.642;24.812;2023-05-02T13:24:50;96831.59;;;26.34;27.97
5954;BME280;3002;42.642;24.812;2023-05-02T13:27:16;96840.31;;;26.03;27.65
5954;BME280;3002;42.642;24.812;2023-05-02T13:29:43;96841.47;;;25.27;28.72
5954;BME280;3002;42.642;24.812;2023-05-02T13:32:08;96820.31;;;24.22;29.14
5954;BME280;3002;42.642;24.812;2023-05-02T13:34:34;96837.94;;;24.44;28.36
5954;BME280;3002;42.642;24.812;2023-05-02T13:37:01;96829.94;;;25.15;27.99
5954;BME280;3002;42.642;24.812;2023-05-02T13:39:26;96831.44;;;25.08;27.56
5954;BME280;3002;42.642;24.812;2023-05-02T13:41:51;96839.19;;;24.76;29.06
5954;BME280;3002;42.642;24.812;2023-05-02T13:44:17;96823.31;;;24.89;28.40
5954;BME280;3002;42.642;24.812;2023-05-02T13:46:42;96815.38;;;25.11;28.77
5954;BME280;3002;42.642;24.812;2023-05-02T13:49:08;96828.59;;;24.75;29.99
5954;BME280;3002;42.642;24.812;2023-05-02T13:51:34;96828.69;;;24.29;28.30
5954;BME280;3002;42.642;24.812;2023-05-02T13:54:00;96818.25;;;25.92;27.37
5954;BME280;3002;42.642;24.812;2023-05-02T13:56:26;96831.47;;;23.87;29.13